Weather History for Lago Vista, TX

Change the Weather History Date:

Tuesday, April 29, 2014

  Actual Average (KATT) Record (KATT)
Temperature  
Mean Temperature 72 °F 72 °F  
Max Temperature 81 °F 83 °F 95 °F (1937)
Min Temperature 63 °F 62 °F 42 °F (1903)
Degree Days  
Heating Degree Days 0 0  
Month to date heating degree days 37  
Since 1 July heating degree days 1536  
Cooling Degree Days 7 8  
Month to date cooling degree days 157  
Year to date cooling degree days 245  
Growing Degree Days 22 (Base 50)    
Moisture  
Dew Point 30 °F    
Average Humidity 21    
Maximum Humidity 42    
Minimum Humidity 12    
Precipitation  
Precipitation 0.00 in 0.09 in 3.00 in (1905)
Month to date precipitation 1.99  
Year to date precipitation 8.99  
Snow  
Snow 0.00 in - - ()
Month to date snowfall  
Since 1 July snowfall  
Snow Depth -    
Sea Level Pressure  
Sea Level Pressure 29.82 in    
Wind  
Wind Speed 9 mph (NNW)    
Max Wind Speed 20 mph    
Max Gust Speed 29 mph    
Visibility 10 miles    
Events      
T = Trace of Precipitation, MM = Missing Value Source: NWS Daily Summary

Daily Weather History Graph

Daily Weather History Graph

Search for Another Location

Airport:

Trip Planner

Search our weather history database for the weather conditions in past years. The results will help you decide how hot, cold, wet, or windy it might be!

Date:

Astronomy

Apr. 29, 2014 Rise Set
Actual Time 6:50 AM CDT 8:08 PM CDT
Civil Twilight 6:24 AM CDT 8:34 PM CDT
Nautical Twilight 5:54 AM CDT 9:04 PM CDT
Astronomical Twilight 5:23 AM CDT 9:35 PM CDT
Moon 7:08 AM CDT (4/29) 8:48 PM CDT (4/29)
Length of Visible Light 14h 09m
Length of Day
13h 18m
New Moon, 0% of the Moon is Illuminated
Apr 29
New Moon
May 6
First Quarter
May 14
Full
May 21
Last Quarter
May 28
New

Hourly Weather History & Observations

Time (CDT) Temp. Dew Point Humidity Pressure Visibility Wind Dir Wind Speed Gust Speed Precip Events Conditions
12:15 AM 76.5 °F 30.2 °F 18% 29.68 in 10.0 mi SSW 3.5 mph - N/A   Clear
12:35 AM 76.3 °F 30.4 °F 19% 29.68 in 10.0 mi SSW 4.6 mph - N/A   Clear
12:55 AM 76.1 °F 30.2 °F 19% 29.68 in 10.0 mi SSW 3.5 mph - N/A   Clear
1:15 AM 75.6 °F 30.2 °F 19% 29.68 in 10.0 mi South 6.9 mph - N/A   Clear
1:35 AM 74.8 °F 31.1 °F 20% 29.68 in 10.0 mi South 6.9 mph - N/A   Clear
1:55 AM 73.9 °F 31.8 °F 21% 29.67 in 10.0 mi South 6.9 mph - N/A   Clear
2:15 AM 74.1 °F 32.0 °F 21% 29.67 in 10.0 mi South 6.9 mph - N/A   Clear
2:35 AM 73.6 °F 32.9 °F 23% 29.66 in 10.0 mi South 4.6 mph - N/A   Clear
2:55 AM 72.9 °F 33.8 °F 24% 29.66 in 10.0 mi SSW 4.6 mph - N/A   Clear
3:15 AM 72.9 °F 36.0 °F 26% 29.66 in 10.0 mi SW 6.9 mph - N/A   Clear
3:35 AM 69.3 °F 35.1 °F 28% 29.67 in 10.0 mi WNW 6.9 mph - N/A   Clear
3:55 AM 71.1 °F 34.2 °F 26% 29.68 in 10.0 mi WNW 6.9 mph - N/A   Clear
4:15 AM 73.6 °F 35.1 °F 25% 29.69 in 10.0 mi West 10.4 mph - N/A   Clear
4:35 AM 72.9 °F 35.6 °F 26% 29.70 in 10.0 mi West 11.5 mph - N/A   Clear
4:55 AM 70.7 °F 33.1 °F 25% 29.70 in 10.0 mi WNW 6.9 mph - N/A   Clear
5:15 AM 73.0 °F 30.7 °F 21% 29.70 in 10.0 mi WNW 8.1 mph - N/A   Clear
5:35 AM 67.3 °F 33.3 °F 28% 29.71 in 10.0 mi West 5.8 mph - N/A   Clear
5:55 AM 67.1 °F 32.7 °F 28% 29.71 in 10.0 mi West 6.9 mph - N/A   Clear
6:15 AM 69.1 °F 30.2 °F 24% 29.71 in 10.0 mi WSW 6.9 mph - N/A   Clear
6:35 AM 67.5 °F 30.0 °F 25% 29.72 in 10.0 mi WNW 5.8 mph - N/A   Clear
7:15 AM 66.4 °F 31.3 °F 27% 29.76 in 10.0 mi North 10.4 mph 19.6 mph N/A   Clear
7:35 AM 64.6 °F 37.4 °F 37% 29.77 in 10.0 mi North 10.4 mph 24.2 mph N/A   Clear
7:55 AM 63.9 °F 40.1 °F 42% 29.79 in 10.0 mi North 11.5 mph 24.2 mph N/A   Clear
8:15 AM 64.6 °F 40.1 °F 41% 29.80 in 10.0 mi North 17.3 mph 25.3 mph N/A   Clear
8:35 AM 65.7 °F 39.9 °F 39% 29.81 in 10.0 mi North 15.0 mph 26.5 mph N/A   Clear
8:55 AM 67.1 °F 37.2 °F 33% 29.82 in 10.0 mi North 16.1 mph 27.6 mph N/A   Clear
9:15 AM 68.4 °F 36.5 °F 31% 29.83 in 10.0 mi NNE 18.4 mph 27.6 mph N/A   Clear
9:35 AM 70.0 °F 34.9 °F 28% 29.84 in 10.0 mi North 16.1 mph 28.8 mph N/A   Clear
9:55 AM 70.9 °F 34.0 °F 26% 29.85 in 10.0 mi NNE 12.7 mph 28.8 mph N/A   Clear
10:15 AM 71.4 °F 34.2 °F 25% 29.85 in 10.0 mi North 15.0 mph 26.5 mph N/A   Clear
10:35 AM 73.0 °F 33.3 °F 23% 29.86 in 10.0 mi North 16.1 mph 27.6 mph N/A   Clear
10:55 AM 73.8 °F 33.4 °F 23% 29.87 in 10.0 mi North 13.8 mph 25.3 mph N/A   Clear
11:15 AM 74.7 °F 32.0 °F 21% 29.87 in 10.0 mi North 13.8 mph 24.2 mph N/A   Clear
11:35 AM 75.2 °F 32.0 °F 21% 29.87 in 10.0 mi NNE 9.2 mph 25.3 mph N/A   Clear
11:55 AM 77.2 °F 32.9 °F 20% 29.87 in 10.0 mi North 9.2 mph 23.0 mph N/A   Clear
12:15 PM 77.2 °F 31.8 °F 19% 29.87 in 10.0 mi North 12.7 mph 24.2 mph N/A   Clear
12:35 PM 77.9 °F 32.2 °F 19% 29.86 in 10.0 mi North 13.8 mph 20.7 mph N/A   Clear
12:55 PM 77.9 °F 32.5 °F 19% 29.86 in 10.0 mi North 9.2 mph 23.0 mph N/A   Clear
1:15 PM 78.4 °F 32.0 °F 18% 29.86 in 10.0 mi North 17.3 mph 26.5 mph N/A   Clear
1:35 PM 79.9 °F 31.8 °F 17% 29.86 in 10.0 mi NNW 15.0 mph 21.9 mph N/A   Clear
1:55 PM 79.2 °F 32.0 °F 18% 29.86 in 10.0 mi NNW 15.0 mph 23.0 mph N/A   Clear
2:15 PM 79.3 °F 31.5 °F 18% 29.86 in 10.0 mi North 10.4 mph 24.2 mph N/A   Clear
2:35 PM 79.3 °F 29.7 °F 16% 29.86 in 10.0 mi North 13.8 mph 23.0 mph N/A   Clear
2:55 PM 80.2 °F 28.6 °F 15% 29.86 in 10.0 mi North 13.8 mph 25.3 mph N/A   Clear
3:15 PM 81.0 °F 28.8 °F 15% 29.86 in 10.0 mi NNW 13.8 mph 21.9 mph N/A   Clear
3:35 PM 81.3 °F 27.1 °F 14% 29.85 in 10.0 mi NNW 16.1 mph 25.3 mph N/A   Clear
3:55 PM 80.6 °F 26.2 °F 14% 29.84 in 10.0 mi NNW 9.2 mph 26.5 mph N/A   Clear
4:15 PM 80.8 °F 24.8 °F 13% 29.84 in 10.0 mi NW 19.6 mph 25.3 mph N/A   Clear
4:35 PM 80.8 °F 24.6 °F 13% 29.83 in 10.0 mi NNW 10.4 mph 21.9 mph N/A   Clear
4:55 PM 80.8 °F 23.2 °F 12% 29.83 in 10.0 mi NNW 13.8 mph 21.9 mph N/A   Clear
5:35 PM 80.2 °F 23.2 °F 12% 29.85 in 10.0 mi NNW 12.7 mph 26.5 mph N/A   Clear
5:55 PM 78.8 °F 22.6 °F 12% 29.85 in 10.0 mi NW 17.3 mph 27.6 mph N/A   Clear
6:15 PM 79.0 °F 23.4 °F 13% 29.85 in 10.0 mi WNW 16.1 mph 23.0 mph N/A   Clear
6:35 PM 78.4 °F 22.3 °F 12% 29.86 in 10.0 mi NNW 16.1 mph 24.2 mph N/A   Clear
6:55 PM 77.2 °F 21.6 °F 13% 29.86 in 10.0 mi NNW 15.0 mph 23.0 mph N/A   Clear
7:15 PM 76.3 °F 20.8 °F 13% 29.86 in 10.0 mi NNW 8.1 mph 21.9 mph N/A   Clear
7:35 PM 75.0 °F 20.3 °F 13% 29.87 in 10.0 mi North 9.2 mph 17.3 mph N/A   Clear
7:55 PM 73.4 °F 19.9 °F 13% 29.88 in 10.0 mi NNW 5.8 mph 17.3 mph N/A   Clear
8:15 PM 71.8 °F 19.6 °F 14% 29.89 in 10.0 mi NNW 6.9 mph - N/A   Clear
8:35 PM 70.9 °F 19.4 °F 14% 29.90 in 10.0 mi NNW 8.1 mph - N/A   Clear
9:15 PM 69.3 °F 19.8 °F 15% 29.93 in 10.0 mi NNW 5.8 mph - N/A   Clear
9:35 PM 69.3 °F 20.3 °F 16% 29.95 in 10.0 mi North 12.7 mph 17.3 mph N/A   Clear
9:55 PM 68.9 °F 22.5 °F 17% 29.96 in 10.0 mi North 8.1 mph 16.1 mph N/A   Clear
10:15 PM 68.4 °F 24.6 °F 19% 29.98 in 10.0 mi North 9.2 mph 18.4 mph N/A   Clear
10:35 PM 68.2 °F 26.2 °F 21% 29.99 in 10.0 mi North 10.4 mph 19.6 mph N/A   Clear
10:55 PM 67.3 °F 27.0 °F 22% 30.00 in 10.0 mi North 11.5 mph 17.3 mph N/A   Clear
11:15 PM 66.9 °F 27.9 °F 23% 30.00 in 10.0 mi North 8.1 mph 19.6 mph N/A   Clear
11:35 PM 66.2 °F 28.4 °F 24% 30.00 in 10.0 mi North 10.4 mph 17.3 mph N/A   Mostly Cloudy
11:55 PM 65.5 °F 28.9 °F 25% 30.00 in 10.0 mi North 8.1 mph 19.6 mph N/A   Overcast